»·PEaware :: SWA234 KPDX-KSFO

SWA234 :: KPDX-KSFO

FLIGHT INFORMATION

Flight Status: Arrived
Operator:
Southwest Airlines
More flights by this operator :: More flights under this callsign
Pilot: Peter H. (12565)
Aircraft: BOEING 737-300
(B733)
More flights by this aircraft type
Origin: KPDX Portland Intl
United States
Destination: KSFO San Francisco Intl
United States
More flights between these airports :: More routes between these airports
Route: +MINNE5 FAMUK Q3 FOWND MLBEC BDEGA2
File this flight plan on PilotEdge
Remarks:
Altitude:
(Current/Filed)
33,000ft
Speed:
(Current/Filed)
500kts
Departed: 08-Dec-17 05:04 PM
Arrived: 08-Dec-17 06:35 PM
Distance/Time
Traveled:
478nm/1:31
Distance/Time
To Go:
Arrived

Flight Plot

Page will automatically refresh every two minutes.


Map Options




Map Legend


Flown Route
Filed Route
Departure Airport
Arrival Airport
Navaid (VOR, NDB)
Fix

Horizontal Profiles

Position Reports

Time Latitude Longitude Heading Altitude Ground
Speed
08-Dec-17 16:54 45.590559 -122.599429 193 23ft 0kts
08-Dec-17 16:55 45.590559 -122.599429 193 23ft 0kts
08-Dec-17 16:56 45.590559 -122.599429 193 23ft 0kts
08-Dec-17 16:57 45.590559 -122.599429 193 23ft 0kts
08-Dec-17 16:58 45.590559 -122.599429 193 23ft 0kts
08-Dec-17 16:59 45.590559 -122.599429 193 23ft 0kts
08-Dec-17 17:00 45.590559 -122.599429 193 23ft 0kts
08-Dec-17 17:01 45.590559 -122.599429 193 23ft 0kts
08-Dec-17 17:02 45.590559 -122.599429 193 23ft 0kts
08-Dec-17 17:03 45.590559 -122.599429 193 23ft 0kts
08-Dec-17 17:04 45.590559 -122.599429 193 23ft 0kts
08-Dec-17 17:05 45.590472 -122.599591 257 23ft 0kts
08-Dec-17 17:06 45.590977 -122.600470 350 23ft 10kts
08-Dec-17 17:07 45.593862 -122.598611 44 27ft 17kts
08-Dec-17 17:08 45.594475 -122.597697 48 27ft 0kts
08-Dec-17 17:09 45.592043 -122.588286 106 47ft 124kts
08-Dec-17 17:10 45.576709 -122.531014 98 3167ft 165kts
08-Dec-17 17:11 45.565621 -122.461334 101 5675ft 229kts
08-Dec-17 17:12 45.549117 -122.369831 103 9245ft 259kts
08-Dec-17 17:13 45.492171 -122.319036 172 12743ft 282kts
08-Dec-17 17:14 45.417781 -122.360118 239 15383ft 338kts
08-Dec-17 17:15 45.378552 -122.482456 243 18469ft 354kts
08-Dec-17 17:16 45.340186 -122.602919 243 21171ft 363kts
08-Dec-17 17:17 45.298593 -122.732958 243 23491ft 380kts
08-Dec-17 17:18 45.253653 -122.872214 243 25636ft 398kts
08-Dec-17 17:19 45.179788 -122.980135 192 27594ft 409kts
08-Dec-17 17:20 45.075710 -123.003217 190 29240ft 423kts
08-Dec-17 17:21 44.960611 -123.029860 190 31632ft 416kts
08-Dec-17 17:22 44.847811 -123.055950 191 33415ft 418kts
08-Dec-17 17:23 44.730648 -123.082970 191 33480ft 434kts
08-Dec-17 17:24 44.612276 -123.110168 191 33482ft 434kts
08-Dec-17 17:25 44.494045 -123.136016 184 33495ft 436kts
08-Dec-17 17:26 44.375922 -123.131480 180 33509ft 437kts
08-Dec-17 17:27 44.259445 -123.127222 180 33508ft 437kts
08-Dec-17 17:28 44.144189 -123.123094 180 33499ft 436kts
08-Dec-17 17:29 44.026040 -123.118880 180 33482ft 437kts
08-Dec-17 17:30 43.914022 -123.114899 180 33481ft 436kts
08-Dec-17 17:31 43.797475 -123.110766 180 33483ft 437kts
08-Dec-17 17:32 43.687477 -123.106886 180 33481ft 436kts
08-Dec-17 17:33 43.567106 -123.102670 180 33474ft 436kts
08-Dec-17 17:34 43.446833 -123.098554 180 33453ft 436kts
08-Dec-17 17:35 43.326037 -123.094363 180 33453ft 436kts
08-Dec-17 17:36 43.205264 -123.090189 180 33454ft 436kts
08-Dec-17 17:37 43.084532 -123.086035 180 33454ft 436kts
08-Dec-17 17:38 42.970401 -123.082122 180 33454ft 436kts
08-Dec-17 17:39 42.867859 -123.078618 180 33433ft 436kts
08-Dec-17 17:40 42.747253 -123.074507 180 33454ft 436kts
08-Dec-17 17:41 42.626902 -123.070426 180 33454ft 437kts
08-Dec-17 17:42 42.505751 -123.066334 180 33454ft 437kts
08-Dec-17 17:43 42.385350 -123.062651 180 33454ft 437kts
08-Dec-17 17:44 42.263873 -123.058707 180 33454ft 437kts
08-Dec-17 17:45 42.143715 -123.054805 180 33454ft 437kts
08-Dec-17 17:46 42.023314 -123.050910 180 33454ft 437kts
08-Dec-17 17:47 41.902125 -123.047006 180 33455ft 438kts
08-Dec-17 17:48 41.781779 -123.043135 180 33457ft 438kts
08-Dec-17 17:49 41.660565 -123.039258 180 33536ft 438kts
08-Dec-17 17:50 41.539262 -123.035392 180 33536ft 438kts
08-Dec-17 17:51 41.419105 -123.031578 180 33535ft 438kts
08-Dec-17 17:52 41.297028 -123.027934 181 33463ft 438kts
08-Dec-17 17:53 41.176136 -123.024365 180 33454ft 439kts
08-Dec-17 17:54 41.054397 -123.020662 180 33454ft 439kts
08-Dec-17 17:56 40.933121 -123.016984 180 33455ft 439kts
08-Dec-17 17:57 40.814031 -123.013380 180 33456ft 439kts
08-Dec-17 17:58 40.692291 -123.009714 180 33454ft 439kts
08-Dec-17 17:59 40.571886 -123.006103 180 33461ft 439kts
08-Dec-17 18:00 40.450834 -123.002486 180 33482ft 439kts
08-Dec-17 18:01 40.329281 -122.998867 180 33431ft 440kts
08-Dec-17 18:02 40.207754 -122.995261 180 33371ft 440kts
08-Dec-17 18:03 40.085932 -122.991660 180 33401ft 441kts
08-Dec-17 18:04 39.963796 -122.988063 180 33401ft 441kts
08-Dec-17 18:05 39.843018 -122.984516 180 33387ft 444kts
08-Dec-17 18:06 39.719085 -122.980888 181 33406ft 447kts
08-Dec-17 18:07 39.595225 -122.977277 181 33400ft 446kts
08-Dec-17 18:08 39.471928 -122.973697 181 33400ft 446kts
08-Dec-17 18:09 39.348785 -122.970135 181 33400ft 446kts
08-Dec-17 18:10 39.225432 -122.966580 181 33400ft 446kts
08-Dec-17 18:11 39.102476 -122.963050 181 33400ft 446kts
08-Dec-17 18:12 38.978959 -122.961091 181 33400ft 446kts
08-Dec-17 18:13 38.857538 -122.955249 170 32178ft 437kts
08-Dec-17 18:14 38.743358 -122.920156 168 28613ft 418kts
08-Dec-17 18:15 38.634618 -122.887928 168 26351ft 405kts
08-Dec-17 18:16 38.528671 -122.856714 167 24193ft 379kts
08-Dec-17 18:17 38.429163 -122.827495 167 24190ft 388kts
08-Dec-17 18:18 38.330085 -122.798401 167 24367ft 385kts
08-Dec-17 18:19 38.231645 -122.769551 167 22649ft 368kts
08-Dec-17 18:20 38.135146 -122.741567 166 20488ft 365kts
08-Dec-17 18:21 38.037433 -122.713183 166 17903ft 358kts
08-Dec-17 18:22 37.943744 -122.686025 167 15915ft 337kts
08-Dec-17 18:23 37.863720 -122.635891 140 13985ft 337kts
08-Dec-17 18:24 37.794475 -122.562236 140 12049ft 321kts
08-Dec-17 18:25 37.728749 -122.492612 140 10992ft 294kts
08-Dec-17 18:26 37.668150 -122.428175 140 10983ft 287kts
08-Dec-17 18:27 37.607141 -122.366999 159 10974ft 279kts
08-Dec-17 18:28 37.541822 -122.328576 153 9496ft 273kts
08-Dec-17 18:28 37.485851 -122.293268 153 7626ft 276kts
08-Dec-17 18:30 37.412048 -122.246330 153 5967ft 239kts
08-Dec-17 18:31 37.353662 -122.210065 153 5991ft 240kts
08-Dec-17 18:31 37.321096 -122.164218 87 5700ft 241kts
08-Dec-17 18:33 37.372953 -122.133940 343 4071ft 224kts
08-Dec-17 18:34 37.429723 -122.155374 343 3998ft 215kts
08-Dec-17 18:34 37.476924 -122.173201 343 3986ft 215kts
08-Dec-17 18:35 37.524916 -122.202978 309 3887ft 179kts
08-Dec-17 18:36 37.555441 -122.245872 314 3505ft 137kts
08-Dec-17 18:37 37.579161 -122.284340 306 2769ft 141kts
08-Dec-17 18:38 37.596750 -122.324341 305 1195ft 117kts
08-Dec-17 18:39 37.612361 -122.359982 299 10ft 115kts
08-Dec-17 18:40 37.619726 -122.377626 298 25ft 34kts
08-Dec-17 18:41 37.619035 -122.380468 234 30ft 23kts

Navigation Log

Ident Type
1. KPDX Airport
2. RIVRR Fix
3. COSUG Fix
4. BISLE Fix
5. MINNE Fix
6. FAMUK Fix
7. FAMUK Navaid
8. FRFLY Navaid
9. FINER Navaid
10. FOWND Navaid
11. MLBEC Fix
12. JONNE Fix
13. BGGLO Fix
14. LOZIT Fix
15. BDEGA Fix
16. CORKK Fix
17. BRIXX Fix
18. KSFO Airport